Aeroporto :
LOGIN :

Iscrizione | Disclaimer

   EN    FR    IT 

 










Sommario :    VFR   VFR Marginale   IFR   IFR Intensivo   IFR Molto Intensivo
Visibilità : 
Base nubi : 
>= 8 km
>= 3000ft
5 / 8 km
1000 / 3000 ft
1500m / 5 km
500 / 1000 ft
800 / 1500m
200 / 500 ft
< 800m
< 200 ft
Simboli :   Temporali  Nebbia  Neve Forte  Precipitazioni Forti  Vento > 20 kt
SIGMETs :   Varie  Temporali  Ghiacco  Turbolenza  Onda orograficha  Ceneri Vulcaniche







- Altitudine del aeroporto : 74 ft
- Codice IATA : EIN


EHEH - Eindhoven

ULTIMO METAR :
  • 201725Z AUTO 30006KT 240V360 9999 BKN047 OVC052 24/17 Q1010 BLU 26008KT 9999 SCT045

METARs OBSOLETI :
  • 201655Z AUTO 22014KT 190V290 9999 SCT042 BKN049 BKN053 25/16 Q1010 BLU 23014KT 9999 FEW040 SCT045 BECMG 25008KT
  • 201643Z AUTO 23014KT 190V290 9999 SCT040 BKN045 BKN059 26/16 Q1010 BLU 23014KT 9999 FEW040 SCT045 BECMG 25008KT
  • 201625Z AUTO 25013KT 220V310 9999 FEW040 SCT350 26/15 Q1010 BLU 25012KT 9999 FEW040 TEMPO 26015G25KT FEW038CB SCT050
  • 201555Z AUTO 23016KT 190V250 9999 TS NCD 26/15 Q1010 BLU 25012KT 9999 FEW035 TEMPO 26015G25KT TSRA FEW040CB SCT050
  • 201525Z AUTO 23016KT 200V270 9999 FEW044CB 26/15 Q1010 RETS BLU 25012KT 9999 FEW035 TEMPO 26015G25KT TSRA FEW040CB SCT050
  • 201455Z AUTO 21015KT 180V240 9999 TS FEW038CB 26/16 Q1009 BLU 25007KT 9999 SCT035 BKN070 TEMPO 26015G25KT 4000 SHRA TSRA SCT010 SCT040CB BKN050

TAF TAF EHEH
Valido dal 20 a 12 ore il 21 a 18 ore UTC


201130Z 2012/2118 25007KT CAVOK
TEMPO 2012/2020 26015G25KT 4000 SHRA SCT040CB
PROB40
TEMPO 2013/2019 26025G45KT 2500 TSRA TSRAGR SCT010 BKN040CB
PROB40
TEMPO 2102/2109 SCT010 BKN015
BECMG 2116/2118 30004KT
Nessun NOTAM noto per questo aeroporto.



MetMap, La meteo Aeronautica in un colpo d'occhio ! - Copyright ORBIFLY Dicembre 2007 - Disclaimer

ORBIFLY MET'MAP TEAM :

Programmazione e sviluppo : Alexandra Zaïnal
Concezione e sviluppo : Baudouin d'Aumeries
Co-Programmazione e sviluppo : Marc-Olivier Méhu
Supporto tecnico e logistico : Manuel Goepfert
Aiuto per la traduzione : Arnaldo La Scala

Contatto : metmap@orbifly.com




FONTI E CREDITI :

   NOAA